sensor_id;sensor_type;location;lat;lon;timestamp;temperature;humidity
47604;DHT22;33326;51.116;6.900;2022-11-04T00:02:39;11.40;99.90
47604;DHT22;33326;51.116;6.900;2022-11-04T00:07:41;11.40;99.90
47604;DHT22;33326;51.116;6.900;2022-11-04T00:13:00;11.30;99.90
47604;DHT22;33326;51.116;6.900;2022-11-04T00:18:04;11.30;99.90
47604;DHT22;33326;51.116;6.900;2022-11-04T00:23:06;11.30;99.90
47604;DHT22;33326;51.116;6.900;2022-11-04T00:28:25;11.30;99.90
47604;DHT22;33326;51.116;6.900;2022-11-04T00:33:47;11.30;99.90
47604;DHT22;33326;51.116;6.900;2022-11-04T00:38:50;11.30;99.90
47604;DHT22;33326;51.116;6.900;2022-11-04T00:43:52;11.20;99.90
47604;DHT22;33326;51.116;6.900;2022-11-04T00:48:55;11.20;99.90
47604;DHT22;33326;51.116;6.900;2022-11-04T00:53:57;11.20;99.90
47604;DHT22;33326;51.116;6.900;2022-11-04T00:58:59;11.20;99.90
47604;DHT22;33326;51.116;6.900;2022-11-04T01:04:03;11.30;99.90
47604;DHT22;33326;51.116;6.900;2022-11-04T01:09:06;11.30;99.90
47604;DHT22;33326;51.116;6.900;2022-11-04T01:14:10;11.30;99.90
47604;DHT22;33326;51.116;6.900;2022-11-04T01:19:13;11.30;99.90
47604;DHT22;33326;51.116;6.900;2022-11-04T01:24:15;11.30;99.90
47604;DHT22;33326;51.116;6.900;2022-11-04T01:29:17;11.40;99.90
47604;DHT22;33326;51.116;6.900;2022-11-04T01:34:20;11.50;99.90
47604;DHT22;33326;51.116;6.900;2022-11-04T01:39:22;11.50;99.90
47604;DHT22;33326;51.116;6.900;2022-11-04T01:44:48;11.60;99.90
47604;DHT22;33326;51.116;6.900;2022-11-04T01:49:55;11.60;99.90
47604;DHT22;33326;51.116;6.900;2022-11-04T01:55:02;11.60;99.90
47604;DHT22;33326;51.116;6.900;2022-11-04T02:00:07;11.50;99.90
47604;DHT22;33326;51.116;6.900;2022-11-04T02:05:14;11.40;99.90
47604;DHT22;33326;51.116;6.900;2022-11-04T02:10:17;11.30;99.90
47604;DHT22;33326;51.116;6.900;2022-11-04T02:15:24;11.30;99.90
47604;DHT22;33326;51.116;6.900;2022-11-04T02:20:47;11.20;99.90
47604;DHT22;33326;51.116;6.900;2022-11-04T02:26:12;11.20;99.90
47604;DHT22;33326;51.116;6.900;2022-11-04T02:31:25;11.10;99.90
47604;DHT22;33326;51.116;6.900;2022-11-04T02:36:38;11.00;99.90
47604;DHT22;33326;51.116;6.900;2022-11-04T02:41:49;10.90;99.90
47604;DHT22;33326;51.116;6.900;2022-11-04T02:46:59;10.90;99.90
47604;DHT22;33326;51.116;6.900;2022-11-04T02:52:04;10.90;99.90
47604;DHT22;33326;51.116;6.900;2022-11-04T02:57:10;10.80;99.90
47604;DHT22;33326;51.116;6.900;2022-11-04T03:02:21;10.70;99.90
47604;DHT22;33326;51.116;6.900;2022-11-04T03:07:27;10.70;99.90
47604;DHT22;33326;51.116;6.900;2022-11-04T03:12:35;10.70;99.90
47604;DHT22;33326;51.116;6.900;2022-11-04T03:17:45;10.60;99.90
47604;DHT22;33326;51.116;6.900;2022-11-04T03:23:31;10.60;99.90
47604;DHT22;33326;51.116;6.900;2022-11-04T03:28:40;10.60;99.90
47604;DHT22;33326;51.116;6.900;2022-11-04T03:33:47;10.70;99.90
47604;DHT22;33326;51.116;6.900;2022-11-04T03:38:52;10.70;99.90
47604;DHT22;33326;51.116;6.900;2022-11-04T03:43:55;10.80;99.90
47604;DHT22;33326;51.116;6.900;2022-11-04T03:49:00;10.60;99.90
47604;DHT22;33326;51.116;6.900;2022-11-04T03:54:03;10.50;99.90
47604;DHT22;33326;51.116;6.900;2022-11-04T03:59:17;10.50;99.90
47604;DHT22;33326;51.116;6.900;2022-11-04T04:04:30;10.50;99.90
47604;DHT22;33326;51.116;6.900;2022-11-04T04:09:37;10.50;99.90
47604;DHT22;33326;51.116;6.900;2022-11-04T04:14:43;10.50;99.90
47604;DHT22;33326;51.116;6.900;2022-11-04T04:19:52;10.60;99.90
47604;DHT22;33326;51.116;6.900;2022-11-04T04:24:58;10.50;99.90
47604;DHT22;33326;51.116;6.900;2022-11-04T04:30:18;10.40;99.90
47604;DHT22;33326;51.116;6.900;2022-11-04T04:40:41;10.50;99.90
47604;DHT22;33326;51.116;6.900;2022-11-04T04:46:00;10.50;99.90
47604;DHT22;33326;51.116;6.900;2022-11-04T04:51:03;10.30;99.90
47604;DHT22;33326;51.116;6.900;2022-11-04T04:56:06;10.20;99.90
47604;DHT22;33326;51.116;6.900;2022-11-04T05:01:08;10.20;99.90
47604;DHT22;33326;51.116;6.900;2022-11-04T05:06:10;10.20;99.90
47604;DHT22;33326;51.116;6.900;2022-11-04T05:11:13;10.20;99.90
47604;DHT22;33326;51.116;6.900;2022-11-04T05:16:15;10.40;99.90
47604;DHT22;33326;51.116;6.900;2022-11-04T05:21:17;10.30;99.90
47604;DHT22;33326;51.116;6.900;2022-11-04T05:26:20;10.30;99.90
47604;DHT22;33326;51.116;6.900;2022-11-04T05:31:22;10.20;99.90
47604;DHT22;33326;51.116;6.900;2022-11-04T05:36:24;10.10;99.90
47604;DHT22;33326;51.116;6.900;2022-11-04T05:41:27;10.00;99.90
47604;DHT22;33326;51.116;6.900;2022-11-04T05:46:29;10.00;99.90
47604;DHT22;33326;51.116;6.900;2022-11-04T05:51:32;10.00;99.90
47604;DHT22;33326;51.116;6.900;2022-11-04T05:56:35;10.00;99.90
47604;DHT22;33326;51.116;6.900;2022-11-04T06:01:38;10.00;99.90
47604;DHT22;33326;51.116;6.900;2022-11-04T06:06:41;9.90;99.90
47604;DHT22;33326;51.116;6.900;2022-11-04T06:11:44;10.00;99.90
47604;DHT22;33326;51.116;6.900;2022-11-04T06:16:46;10.00;99.90
47604;DHT22;33326;51.116;6.900;2022-11-04T06:21:47;10.10;99.90
47604;DHT22;33326;51.116;6.900;2022-11-04T06:26:51;10.10;99.90
47604;DHT22;33326;51.116;6.900;2022-11-04T06:31:52;10.10;99.90
47604;DHT22;33326;51.116;6.900;2022-11-04T06:36:54;10.00;99.90
47604;DHT22;33326;51.116;6.900;2022-11-04T06:41:57;10.10;99.90
47604;DHT22;33326;51.116;6.900;2022-11-04T06:46:59;10.20;99.90
47604;DHT22;33326;51.116;6.900;2022-11-04T06:52:01;10.20;99.90
47604;DHT22;33326;51.116;6.900;2022-11-04T06:57:04;10.20;99.90
47604;DHT22;33326;51.116;6.900;2022-11-04T07:02:08;10.30;99.90
47604;DHT22;33326;51.116;6.900;2022-11-04T07:07:10;10.40;99.90
47604;DHT22;33326;51.116;6.900;2022-11-04T07:12:13;10.50;99.90
47604;DHT22;33326;51.116;6.900;2022-11-04T07:17:15;10.50;99.90
47604;DHT22;33326;51.116;6.900;2022-11-04T07:22:17;10.50;99.90
47604;DHT22;33326;51.116;6.900;2022-11-04T07:27:20;10.70;99.90
47604;DHT22;33326;51.116;6.900;2022-11-04T07:32:22;10.60;99.90
47604;DHT22;33326;51.116;6.900;2022-11-04T07:37:24;10.70;99.90
47604;DHT22;33326;51.116;6.900;2022-11-04T07:42:27;10.70;99.90
47604;DHT22;33326;51.116;6.900;2022-11-04T07:47:31;10.70;99.90
47604;DHT22;33326;51.116;6.900;2022-11-04T07:52:33;10.70;99.90
47604;DHT22;33326;51.116;6.900;2022-11-04T07:57:36;10.70;99.90
47604;DHT22;33326;51.116;6.900;2022-11-04T08:02:38;10.70;99.90
47604;DHT22;33326;51.116;6.900;2022-11-04T08:07:40;10.70;99.90
47604;DHT22;33326;51.116;6.900;2022-11-04T08:12:43;10.70;99.90
47604;DHT22;33326;51.116;6.900;2022-11-04T08:17:45;10.60;99.90
47604;DHT22;33326;51.116;6.900;2022-11-04T08:22:47;10.70;99.90
47604;DHT22;33326;51.116;6.900;2022-11-04T08:27:50;10.70;99.90
47604;DHT22;33326;51.116;6.900;2022-11-04T08:32:52;10.70;99.90
47604;DHT22;33326;51.116;6.900;2022-11-04T08:37:54;10.70;99.90
47604;DHT22;33326;51.116;6.900;2022-11-04T08:42:57;10.70;99.90
47604;DHT22;33326;51.116;6.900;2022-11-04T08:47:58;10.80;99.90
47604;DHT22;33326;51.116;6.900;2022-11-04T08:53:00;11.00;99.90
47604;DHT22;33326;51.116;6.900;2022-11-04T08:58:04;11.10;99.90
47604;DHT22;33326;51.116;6.900;2022-11-04T09:03:06;11.30;99.90
47604;DHT22;33326;51.116;6.900;2022-11-04T09:08:07;11.50;99.90
47604;DHT22;33326;51.116;6.900;2022-11-04T09:13:11;11.70;99.90
47604;DHT22;33326;51.116;6.900;2022-11-04T09:18:15;11.90;99.90
47604;DHT22;33326;51.116;6.900;2022-11-04T09:23:16;12.00;99.90
47604;DHT22;33326;51.116;6.900;2022-11-04T09:28:20;12.10;99.90
47604;DHT22;33326;51.116;6.900;2022-11-04T09:33:22;12.00;99.90
47604;DHT22;33326;51.116;6.900;2022-11-04T09:38:24;12.10;99.90
47604;DHT22;33326;51.116;6.900;2022-11-04T09:43:35;12.10;99.90
47604;DHT22;33326;51.116;6.900;2022-11-04T09:48:43;12.30;99.90
47604;DHT22;33326;51.116;6.900;2022-11-04T09:53:48;12.40;99.90
47604;DHT22;33326;51.116;6.900;2022-11-04T09:58:52;12.60;99.90
47604;DHT22;33326;51.116;6.900;2022-11-04T10:04:05;12.70;99.90
47604;DHT22;33326;51.116;6.900;2022-11-04T10:09:26;12.70;99.90
47604;DHT22;33326;51.116;6.900;2022-11-04T10:20:18;12.80;99.90
47604;DHT22;33326;51.116;6.900;2022-11-04T10:25:24;13.00;99.90
47604;DHT22;33326;51.116;6.900;2022-11-04T10:30:31;13.00;99.90
47604;DHT22;33326;51.116;6.900;2022-11-04T10:35:36;13.10;99.90
47604;DHT22;33326;51.116;6.900;2022-11-04T10:40:39;13.30;99.90
47604;DHT22;33326;51.116;6.900;2022-11-04T10:45:50;13.50;99.90
47604;DHT22;33326;51.116;6.900;2022-11-04T10:50:56;13.80;99.90
47604;DHT22;33326;51.116;6.900;2022-11-04T10:56:03;13.90;99.90
47604;DHT22;33326;51.116;6.900;2022-11-04T11:01:26;13.80;99.90
47604;DHT22;33326;51.116;6.900;2022-11-04T11:06:29;13.70;99.90
47604;DHT22;33326;51.116;6.900;2022-11-04T11:11:37;13.50;99.90
47604;DHT22;33326;51.116;6.900;2022-11-04T11:16:41;13.40;99.90
47604;DHT22;33326;51.116;6.900;2022-11-04T11:21:46;13.30;99.90
47604;DHT22;33326;51.116;6.900;2022-11-04T11:26:51;13.30;99.90
47604;DHT22;33326;51.116;6.900;2022-11-04T11:31:55;13.20;99.90
47604;DHT22;33326;51.116;6.900;2022-11-04T11:36:58;13.20;99.90
47604;DHT22;33326;51.116;6.900;2022-11-04T11:42:05;13.30;99.90
47604;DHT22;33326;51.116;6.900;2022-11-04T11:47:18;13.30;99.90
47604;DHT22;33326;51.116;6.900;2022-11-04T11:52:30;13.50;99.90
47604;DHT22;33326;51.116;6.900;2022-11-04T11:57:40;13.50;99.90
47604;DHT22;33326;51.116;6.900;2022-11-04T12:02:50;13.50;99.90
47604;DHT22;33326;51.116;6.900;2022-11-04T12:07:59;13.60;99.90
47604;DHT22;33326;51.116;6.900;2022-11-04T12:13:13;13.40;99.90
47604;DHT22;33326;51.116;6.900;2022-11-04T12:18:39;13.40;99.90
47604;DHT22;33326;51.116;6.900;2022-11-04T12:23:49;13.50;99.90
47604;DHT22;33326;51.116;6.900;2022-11-04T12:29:06;13.30;99.90
47604;DHT22;33326;51.116;6.900;2022-11-04T12:34:22;13.30;99.90
47604;DHT22;33326;51.116;6.900;2022-11-04T12:39:42;13.30;99.90
47604;DHT22;33326;51.116;6.900;2022-11-04T12:44:52;13.40;99.90
47604;DHT22;33326;51.116;6.900;2022-11-04T12:50:22;13.50;99.90
47604;DHT22;33326;51.116;6.900;2022-11-04T12:55:37;13.60;99.90
47604;DHT22;33326;51.116;6.900;2022-11-04T13:00:43;13.50;99.90
47604;DHT22;33326;51.116;6.900;2022-11-04T13:05:52;13.50;99.90
47604;DHT22;33326;51.116;6.900;2022-11-04T13:10:58;13.60;99.90
47604;DHT22;33326;51.116;6.900;2022-11-04T13:16:05;13.70;99.90
47604;DHT22;33326;51.116;6.900;2022-11-04T13:21:12;13.70;99.90
47604;DHT22;33326;51.116;6.900;2022-11-04T13:26:16;13.90;99.90
47604;DHT22;33326;51.116;6.900;2022-11-04T13:31:25;13.90;99.90
47604;DHT22;33326;51.116;6.900;2022-11-04T13:36:35;14.00;99.90
47604;DHT22;33326;51.116;6.900;2022-11-04T13:41:56;14.40;99.90
47604;DHT22;33326;51.116;6.900;2022-11-04T13:47:15;14.60;99.90
47604;DHT22;33326;51.116;6.900;2022-11-04T13:52:20;14.30;99.90
47604;DHT22;33326;51.116;6.900;2022-11-04T13:57:23;14.10;99.90
47604;DHT22;33326;51.116;6.900;2022-11-04T14:02:37;13.90;99.90
47604;DHT22;33326;51.116;6.900;2022-11-04T14:08:10;13.80;99.90
47604;DHT22;33326;51.116;6.900;2022-11-04T14:13:41;13.60;99.90
47604;DHT22;33326;51.116;6.900;2022-11-04T14:18:46;13.60;99.90
47604;DHT22;33326;51.116;6.900;2022-11-04T14:23:51;13.60;99.90
47604;DHT22;33326;51.116;6.900;2022-11-04T14:29:00;13.50;99.90
47604;DHT22;33326;51.116;6.900;2022-11-04T14:34:03;13.20;99.90
47604;DHT22;33326;51.116;6.900;2022-11-04T14:39:21;13.30;99.90
47604;DHT22;33326;51.116;6.900;2022-11-04T14:44:29;13.20;99.90
47604;DHT22;33326;51.116;6.900;2022-11-04T14:49:38;13.10;99.90
47604;DHT22;33326;51.116;6.900;2022-11-04T14:54:41;13.00;99.90
47604;DHT22;33326;51.116;6.900;2022-11-04T14:59:43;12.80;99.90
47604;DHT22;33326;51.116;6.900;2022-11-04T15:04:52;12.90;99.90
47604;DHT22;33326;51.116;6.900;2022-11-04T15:09:57;12.90;99.90
47604;DHT22;33326;51.116;6.900;2022-11-04T15:14:59;12.90;99.90
47604;DHT22;33326;51.116;6.900;2022-11-04T15:20:02;13.00;99.90
47604;DHT22;33326;51.116;6.900;2022-11-04T15:25:09;13.00;99.90
47604;DHT22;33326;51.116;6.900;2022-11-04T15:30:20;13.00;99.90
47604;DHT22;33326;51.116;6.900;2022-11-04T15:35:22;12.90;99.90
47604;DHT22;33326;51.116;6.900;2022-11-04T15:40:28;12.80;99.90
47604;DHT22;33326;51.116;6.900;2022-11-04T15:45:35;12.70;99.90
47604;DHT22;33326;51.116;6.900;2022-11-04T15:50:38;12.70;99.90
47604;DHT22;33326;51.116;6.900;2022-11-04T15:55:41;12.60;99.90
47604;DHT22;33326;51.116;6.900;2022-11-04T16:00:51;12.60;99.90
47604;DHT22;33326;51.116;6.900;2022-11-04T16:06:00;12.50;99.90
47604;DHT22;33326;51.116;6.900;2022-11-04T16:11:17;12.60;99.90
47604;DHT22;33326;51.116;6.900;2022-11-04T16:16:21;12.50;99.90
47604;DHT22;33326;51.116;6.900;2022-11-04T16:21:26;12.40;99.90
47604;DHT22;33326;51.116;6.900;2022-11-04T16:26:37;12.40;99.90
47604;DHT22;33326;51.116;6.900;2022-11-04T16:31:39;12.40;99.90
47604;DHT22;33326;51.116;6.900;2022-11-04T16:36:41;12.30;99.90
47604;DHT22;33326;51.116;6.900;2022-11-04T16:41:44;12.20;99.90
47604;DHT22;33326;51.116;6.900;2022-11-04T16:46:46;12.10;99.90
47604;DHT22;33326;51.116;6.900;2022-11-04T16:51:52;12.10;99.90
47604;DHT22;33326;51.116;6.900;2022-11-04T16:56:56;12.00;99.90
47604;DHT22;33326;51.116;6.900;2022-11-04T17:01:59;11.90;99.90
47604;DHT22;33326;51.116;6.900;2022-11-04T17:07:02;11.90;99.90
47604;DHT22;33326;51.116;6.900;2022-11-04T17:12:05;11.90;99.90
47604;DHT22;33326;51.116;6.900;2022-11-04T17:17:08;11.90;99.90
47604;DHT22;33326;51.116;6.900;2022-11-04T17:22:10;12.00;99.90
47604;DHT22;33326;51.116;6.900;2022-11-04T17:27:13;12.00;99.90
47604;DHT22;33326;51.116;6.900;2022-11-04T17:32:15;12.00;99.90
47604;DHT22;33326;51.116;6.900;2022-11-04T17:37:17;11.90;99.90
47604;DHT22;33326;51.116;6.900;2022-11-04T17:42:20;11.90;99.90
47604;DHT22;33326;51.116;6.900;2022-11-04T17:47:50;11.90;99.90
47604;DHT22;33326;51.116;6.900;2022-11-04T17:52:52;11.90;99.90
47604;DHT22;33326;51.116;6.900;2022-11-04T17:57:55;11.90;99.90
47604;DHT22;33326;51.116;6.900;2022-11-04T18:02:57;11.90;99.90
47604;DHT22;33326;51.116;6.900;2022-11-04T18:07:59;11.90;99.90
47604;DHT22;33326;51.116;6.900;2022-11-04T18:13:02;12.00;99.90
47604;DHT22;33326;51.116;6.900;2022-11-04T18:18:04;11.90;99.90
47604;DHT22;33326;51.116;6.900;2022-11-04T18:23:06;12.00;99.90
47604;DHT22;33326;51.116;6.900;2022-11-04T18:28:09;12.00;99.90
47604;DHT22;33326;51.116;6.900;2022-11-04T18:33:11;12.00;99.90
47604;DHT22;33326;51.116;6.900;2022-11-04T18:38:13;11.90;99.90
47604;DHT22;33326;51.116;6.900;2022-11-04T18:43:16;11.80;99.90
47604;DHT22;33326;51.116;6.900;2022-11-04T18:48:18;11.90;99.90
47604;DHT22;33326;51.116;6.900;2022-11-04T18:53:20;11.90;99.90
47604;DHT22;33326;51.116;6.900;2022-11-04T18:58:23;11.80;99.90
47604;DHT22;33326;51.116;6.900;2022-11-04T19:03:25;11.80;99.90
47604;DHT22;33326;51.116;6.900;2022-11-04T19:08:27;11.70;99.90
47604;DHT22;33326;51.116;6.900;2022-11-04T19:13:30;11.70;99.90
47604;DHT22;33326;51.116;6.900;2022-11-04T19:18:32;11.70;99.90
47604;DHT22;33326;51.116;6.900;2022-11-04T19:23:34;11.60;99.90
47604;DHT22;33326;51.116;6.900;2022-11-04T19:28:38;11.50;99.90
47604;DHT22;33326;51.116;6.900;2022-11-04T19:33:40;11.50;99.90
47604;DHT22;33326;51.116;6.900;2022-11-04T19:38:42;11.60;99.90
47604;DHT22;33326;51.116;6.900;2022-11-04T19:43:45;11.60;99.90
47604;DHT22;33326;51.116;6.900;2022-11-04T19:48:47;11.50;99.90
47604;DHT22;33326;51.116;6.900;2022-11-04T19:53:49;11.50;99.90
47604;DHT22;33326;51.116;6.900;2022-11-04T19:58:52;11.40;99.90
47604;DHT22;33326;51.116;6.900;2022-11-04T20:03:54;11.30;99.90
47604;DHT22;33326;51.116;6.900;2022-11-04T20:08:57;11.40;99.90
47604;DHT22;33326;51.116;6.900;2022-11-04T20:14:02;11.40;99.90
47604;DHT22;33326;51.116;6.900;2022-11-04T20:19:04;11.40;99.90
47604;DHT22;33326;51.116;6.900;2022-11-04T20:24:07;11.40;99.90
47604;DHT22;33326;51.116;6.900;2022-11-04T20:29:11;11.50;99.90
47604;DHT22;33326;51.116;6.900;2022-11-04T20:34:13;11.60;99.90
47604;DHT22;33326;51.116;6.900;2022-11-04T20:39:17;11.50;99.90
47604;DHT22;33326;51.116;6.900;2022-11-04T20:44:20;11.40;99.90
47604;DHT22;33326;51.116;6.900;2022-11-04T20:49:22;11.40;99.90
47604;DHT22;33326;51.116;6.900;2022-11-04T20:54:24;11.40;99.90
47604;DHT22;33326;51.116;6.900;2022-11-04T20:59:27;11.40;99.90
47604;DHT22;33326;51.116;6.900;2022-11-04T21:04:29;11.30;99.90
47604;DHT22;33326;51.116;6.900;2022-11-04T21:09:31;11.40;99.90
47604;DHT22;33326;51.116;6.900;2022-11-04T21:14:34;11.30;99.90
47604;DHT22;33326;51.116;6.900;2022-11-04T21:19:36;11.30;99.90
47604;DHT22;33326;51.116;6.900;2022-11-04T21:24:38;11.30;99.90
47604;DHT22;33326;51.116;6.900;2022-11-04T21:29:41;11.30;99.90
47604;DHT22;33326;51.116;6.900;2022-11-04T21:34:43;11.20;99.90
47604;DHT22;33326;51.116;6.900;2022-11-04T21:39:45;11.00;99.90
47604;DHT22;33326;51.116;6.900;2022-11-04T21:44:48;10.90;99.90
47604;DHT22;33326;51.116;6.900;2022-11-04T21:49:50;11.10;99.90
47604;DHT22;33326;51.116;6.900;2022-11-04T21:54:51;11.10;99.90
47604;DHT22;33326;51.116;6.900;2022-11-04T21:59:55;11.10;99.90
47604;DHT22;33326;51.116;6.900;2022-11-04T22:04:56;11.10;99.90
47604;DHT22;33326;51.116;6.900;2022-11-04T22:09:58;11.30;99.90
47604;DHT22;33326;51.116;6.900;2022-11-04T22:15:01;11.20;99.90
47604;DHT22;33326;51.116;6.900;2022-11-04T22:20:05;11.20;99.90
47604;DHT22;33326;51.116;6.900;2022-11-04T22:25:07;11.10;99.90
47604;DHT22;33326;51.116;6.900;2022-11-04T22:30:12;11.10;99.90
47604;DHT22;33326;51.116;6.900;2022-11-04T22:35:14;11.00;99.90
47604;DHT22;33326;51.116;6.900;2022-11-04T22:40:16;11.00;99.90
47604;DHT22;33326;51.116;6.900;2022-11-04T22:45:19;10.90;99.90
47604;DHT22;33326;51.116;6.900;2022-11-04T22:50:21;10.90;99.90
47604;DHT22;33326;51.116;6.900;2022-11-04T22:55:23;10.90;99.90
47604;DHT22;33326;51.116;6.900;2022-11-04T23:00:26;10.80;99.90
47604;DHT22;33326;51.116;6.900;2022-11-04T23:05:30;10.70;99.90
47604;DHT22;33326;51.116;6.900;2022-11-04T23:10:32;10.60;99.90
47604;DHT22;33326;51.116;6.900;2022-11-04T23:15:53;10.50;99.90
47604;DHT22;33326;51.116;6.900;2022-11-04T23:21:14;10.50;99.90
47604;DHT22;33326;51.116;6.900;2022-11-04T23:26:33;10.60;99.90
47604;DHT22;33326;51.116;6.900;2022-11-04T23:31:36;10.60;99.90
47604;DHT22;33326;51.116;6.900;2022-11-04T23:36:38;10.60;99.90
47604;DHT22;33326;51.116;6.900;2022-11-04T23:41:57;10.60;99.90
47604;DHT22;33326;51.116;6.900;2022-11-04T23:47:19;10.60;99.90
47604;DHT22;33326;51.116;6.900;2022-11-04T23:52:38;10.50;99.90
47604;DHT22;33326;51.116;6.900;2022-11-04T23:57:58;10.40;99.90
